sensor_id;sensor_type;location;lat;lon;timestamp;pressure;altitude;pressure_sealevel;temperature;humidity
60307;BME280;46155;52.364;6.580;2023-02-03T04:00:59;101881.81;;;7.65;100.00
60307;BME280;46155;52.364;6.580;2023-02-03T04:03:32;101891.38;;;7.65;100.00
60307;BME280;46155;52.364;6.580;2023-02-03T04:06:00;101888.75;;;7.65;100.00
60307;BME280;46155;52.364;6.580;2023-02-03T04:08:26;101897.78;;;7.68;100.00
60307;BME280;46155;52.364;6.580;2023-02-03T04:10:51;101898.72;;;7.69;100.00
60307;BME280;46155;52.364;6.580;2023-02-03T04:13:16;101905.28;;;7.74;100.00
60307;BME280;46155;52.364;6.580;2023-02-03T04:15:44;101888.13;;;7.67;100.00
60307;BME280;46155;52.364;6.580;2023-02-03T04:18:11;101903.44;;;7.73;100.00
60307;BME280;46155;52.364;6.580;2023-02-03T04:20:37;101898.34;;;7.74;100.00
60307;BME280;46155;52.364;6.580;2023-02-03T04:23:02;101894.94;;;7.75;100.00
60307;BME280;46155;52.364;6.580;2023-02-03T04:25:27;101894.00;;;7.75;100.00
60307;BME280;46155;52.364;6.580;2023-02-03T04:27:53;101899.25;;;7.75;100.00
60307;BME280;46155;52.364;6.580;2023-02-03T04:30:19;101902.94;;;7.77;100.00
60307;BME280;46155;52.364;6.580;2023-02-03T04:32:45;101894.28;;;7.78;100.00
60307;BME280;46155;52.364;6.580;2023-02-03T04:35:11;101905.03;;;7.81;100.00
60307;BME280;46155;52.364;6.580;2023-02-03T04:37:37;101885.94;;;7.82;100.00
60307;BME280;46155;52.364;6.580;2023-02-03T04:40:03;101873.38;;;7.78;100.00
60307;BME280;46155;52.364;6.580;2023-02-03T04:42:28;101878.09;;;7.82;100.00
60307;BME280;46155;52.364;6.580;2023-02-03T04:44:53;101872.09;;;7.83;100.00
60307;BME280;46155;52.364;6.580;2023-02-03T04:47:19;101875.63;;;7.84;100.00
60307;BME280;46155;52.364;6.580;2023-02-03T04:49:44;101871.31;;;7.84;100.00
60307;BME280;46155;52.364;6.580;2023-02-03T04:52:11;101853.66;;;7.82;100.00
60307;BME280;46155;52.364;6.580;2023-02-03T04:54:37;101875.78;;;7.85;100.00
60307;BME280;46155;52.364;6.580;2023-02-03T04:57:03;101868.97;;;7.87;100.00
60307;BME280;46155;52.364;6.580;2023-02-03T04:59:28;101882.19;;;7.89;100.00
60307;BME280;46155;52.364;6.580;2023-02-03T05:01:54;101874.47;;;7.90;100.00
60307;BME280;46155;52.364;6.580;2023-02-03T05:04:19;101895.66;;;7.93;100.00
60307;BME280;46155;52.364;6.580;2023-02-03T05:06:45;101880.63;;;7.91;100.00
60307;BME280;46155;52.364;6.580;2023-02-03T05:09:10;101888.88;;;7.96;100.00
60307;BME280;46155;52.364;6.580;2023-02-03T05:11:35;101893.16;;;7.95;100.00
60307;BME280;46155;52.364;6.580;2023-02-03T05:14:01;101885.75;;;8.00;100.00
60307;BME280;46155;52.364;6.580;2023-02-03T05:16:26;101884.19;;;8.02;100.00
60307;BME280;46155;52.364;6.580;2023-02-03T05:18:51;101859.03;;;7.93;100.00
60307;BME280;46155;52.364;6.580;2023-02-03T05:21:17;101878.31;;;8.04;100.00
60307;BME280;46155;52.364;6.580;2023-02-03T05:23:42;101873.34;;;8.07;100.00
60307;BME280;46155;52.364;6.580;2023-02-03T05:26:08;101868.75;;;8.05;100.00
60307;BME280;46155;52.364;6.580;2023-02-03T05:28:33;101858.03;;;8.02;100.00
60307;BME280;46155;52.364;6.580;2023-02-03T05:31:00;101864.59;;;8.07;100.00
60307;BME280;46155;52.364;6.580;2023-02-03T05:33:26;101875.06;;;8.17;100.00
60307;BME280;46155;52.364;6.580;2023-02-03T05:35:51;101876.47;;;8.14;100.00
60307;BME280;46155;52.364;6.580;2023-02-03T05:38:17;101877.03;;;8.09;100.00
60307;BME280;46155;52.364;6.580;2023-02-03T05:40:42;101872.56;;;8.08;100.00
60307;BME280;46155;52.364;6.580;2023-02-03T05:43:27;101873.97;;;8.05;100.00
60307;BME280;46155;52.364;6.580;2023-02-03T05:45:52;101889.28;;;8.10;100.00
60307;BME280;46155;52.364;6.580;2023-02-03T05:48:17;101887.50;;;8.09;100.00
60307;BME280;46155;52.364;6.580;2023-02-03T05:50:43;101871.69;;;8.18;100.00
60307;BME280;46155;52.364;6.580;2023-02-03T05:53:08;101866.72;;;8.21;100.00
60307;BME280;46155;52.364;6.580;2023-02-03T05:55:34;101887.63;;;8.21;100.00
60307;BME280;46155;52.364;6.580;2023-02-03T05:58:00;101885.16;;;8.23;100.00
60307;BME280;46155;52.364;6.580;2023-02-03T06:00:26;101872.19;;;8.24;100.00
60307;BME280;46155;52.364;6.580;2023-02-03T06:02:56;101871.41;;;8.15;100.00
60307;BME280;46155;52.364;6.580;2023-02-03T06:05:22;101872.84;;;8.22;100.00
60307;BME280;46155;52.364;6.580;2023-02-03T06:07:48;101868.81;;;8.25;100.00
60307;BME280;46155;52.364;6.580;2023-02-03T06:10:15;101846.81;;;8.23;100.00
60307;BME280;46155;52.364;6.580;2023-02-03T06:12:40;101868.56;;;8.22;100.00
60307;BME280;46155;52.364;6.580;2023-02-03T06:15:06;101866.31;;;8.27;100.00
60307;BME280;46155;52.364;6.580;2023-02-03T06:17:32;101857.84;;;8.40;100.00
60307;BME280;46155;52.364;6.580;2023-02-03T06:19:57;101870.66;;;8.37;100.00
60307;BME280;46155;52.364;6.580;2023-02-03T06:22:23;101880.34;;;8.38;100.00
60307;BME280;46155;52.364;6.580;2023-02-03T06:24:48;101881.13;;;8.37;100.00
60307;BME280;46155;52.364;6.580;2023-02-03T06:27:14;101886.34;;;8.37;100.00
60307;BME280;46155;52.364;6.580;2023-02-03T06:29:42;101884.00;;;8.40;100.00
60307;BME280;46155;52.364;6.580;2023-02-03T06:32:08;101884.53;;;8.36;100.00
60307;BME280;46155;52.364;6.580;2023-02-03T06:34:33;101890.53;;;8.35;100.00
60307;BME280;46155;52.364;6.580;2023-02-03T06:36:59;101896.06;;;8.38;100.00
60307;BME280;46155;52.364;6.580;2023-02-03T06:39:24;101899.06;;;8.42;100.00
60307;BME280;46155;52.364;6.580;2023-02-03T06:41:50;101897.94;;;8.49;100.00
60307;BME280;46155;52.364;6.580;2023-02-03T06:44:16;101898.13;;;8.42;100.00
60307;BME280;46155;52.364;6.580;2023-02-03T06:46:42;101894.13;;;8.46;100.00
60307;BME280;46155;52.364;6.580;2023-02-03T06:49:07;101905.50;;;8.46;100.00
60307;BME280;46155;52.364;6.580;2023-02-03T06:51:33;101910.25;;;8.60;100.00
60307;BME280;46155;52.364;6.580;2023-02-03T06:53:58;101889.31;;;8.60;100.00
60307;BME280;46155;52.364;6.580;2023-02-03T06:56:23;101889.31;;;8.60;100.00
60307;BME280;46155;52.364;6.580;2023-02-03T06:58:49;101896.09;;;8.58;100.00
60307;BME280;46155;52.364;6.580;2023-02-03T07:01:14;101900.16;;;8.55;100.00
60307;BME280;46155;52.364;6.580;2023-02-03T07:03:39;101884.16;;;8.52;100.00
60307;BME280;46155;52.364;6.580;2023-02-03T07:06:05;101894.38;;;8.49;100.00
60307;BME280;46155;52.364;6.580;2023-02-03T07:08:30;101901.06;;;8.45;100.00
60307;BME280;46155;52.364;6.580;2023-02-03T07:10:56;101890.44;;;8.43;100.00
60307;BME280;46155;52.364;6.580;2023-02-03T07:13:21;101886.09;;;8.44;100.00
60307;BME280;46155;52.364;6.580;2023-02-03T07:15:46;101894.25;;;8.47;100.00
60307;BME280;46155;52.364;6.580;2023-02-03T07:18:12;101878.38;;;8.35;100.00
60307;BME280;46155;52.364;6.580;2023-02-03T07:20:37;101881.00;;;8.35;100.00
60307;BME280;46155;52.364;6.580;2023-02-03T07:23:02;101899.72;;;8.40;100.00
60307;BME280;46155;52.364;6.580;2023-02-03T07:25:29;101899.56;;;8.38;100.00
60307;BME280;46155;52.364;6.580;2023-02-03T07:27:54;101898.94;;;8.41;100.00
60307;BME280;46155;52.364;6.580;2023-02-03T07:30:20;101901.28;;;8.38;100.00
60307;BME280;46155;52.364;6.580;2023-02-03T07:32:49;101897.72;;;8.37;100.00
60307;BME280;46155;52.364;6.580;2023-02-03T07:35:16;101906.91;;;8.32;100.00
60307;BME280;46155;52.364;6.580;2023-02-03T07:37:41;101916.69;;;8.35;100.00
60307;BME280;46155;52.364;6.580;2023-02-03T07:40:08;101917.13;;;8.39;100.00
60307;BME280;46155;52.364;6.580;2023-02-03T07:42:34;101922.75;;;8.44;100.00
60307;BME280;46155;52.364;6.580;2023-02-03T07:44:59;101928.63;;;8.41;100.00
60307;BME280;46155;52.364;6.580;2023-02-03T07:47:24;101925.88;;;8.40;100.00
60307;BME280;46155;52.364;6.580;2023-02-03T07:49:50;101936.06;;;8.37;100.00
60307;BME280;46155;52.364;6.580;2023-02-03T07:52:15;101931.09;;;8.40;100.00
60307;BME280;46155;52.364;6.580;2023-02-03T07:54:40;101936.34;;;8.40;100.00
60307;BME280;46155;52.364;6.580;2023-02-03T07:57:06;101935.56;;;8.41;100.00
60307;BME280;46155;52.364;6.580;2023-02-03T07:59:31;101938.44;;;8.44;100.00
60307;BME280;46155;52.364;6.580;2023-02-03T08:01:56;101956.03;;;8.45;100.00
60307;BME280;46155;52.364;6.580;2023-02-03T08:04:22;101954.06;;;8.53;100.00
60307;BME280;46155;52.364;6.580;2023-02-03T08:06:48;101951.31;;;8.51;100.00
60307;BME280;46155;52.364;6.580;2023-02-03T08:09:14;101925.78;;;8.49;100.00
60307;BME280;46155;52.364;6.580;2023-02-03T08:11:39;101946.91;;;8.60;100.00
60307;BME280;46155;52.364;6.580;2023-02-03T08:14:05;101942.69;;;8.52;100.00
60307;BME280;46155;52.364;6.580;2023-02-03T08:16:30;101938.50;;;8.54;100.00
60307;BME280;46155;52.364;6.580;2023-02-03T08:18:55;101936.38;;;8.50;100.00
60307;BME280;46155;52.364;6.580;2023-02-03T08:21:21;101947.28;;;8.55;100.00
60307;BME280;46155;52.364;6.580;2023-02-03T08:23:47;101929.34;;;8.49;100.00
60307;BME280;46155;52.364;6.580;2023-02-03T08:26:12;101929.97;;;8.47;100.00
60307;BME280;46155;52.364;6.580;2023-02-03T08:28:37;101925.16;;;8.51;100.00
60307;BME280;46155;52.364;6.580;2023-02-03T08:31:11;101924.75;;;8.57;100.00
60307;BME280;46155;52.364;6.580;2023-02-03T08:33:36;101926.72;;;8.59;100.00
60307;BME280;46155;52.364;6.580;2023-02-03T08:36:03;101930.13;;;8.58;100.00
60307;BME280;46155;52.364;6.580;2023-02-03T08:38:30;101940.34;;;8.55;100.00
60307;BME280;46155;52.364;6.580;2023-02-03T08:40:55;101948.06;;;8.64;100.00
60307;BME280;46155;52.364;6.580;2023-02-03T08:43:21;101948.97;;;8.65;100.00
60307;BME280;46155;52.364;6.580;2023-02-03T08:45:46;101943.91;;;8.66;100.00
60307;BME280;46155;52.364;6.580;2023-02-03T08:48:11;101956.31;;;8.69;100.00
60307;BME280;46155;52.364;6.580;2023-02-03T08:50:40;101960.38;;;8.65;100.00
60307;BME280;46155;52.364;6.580;2023-02-03T08:53:06;101964.72;;;8.75;100.00
60307;BME280;46155;52.364;6.580;2023-02-03T08:55:31;101961.03;;;8.73;100.00
60307;BME280;46155;52.364;6.580;2023-02-03T08:57:56;101976.22;;;8.77;100.00
60307;BME280;46155;52.364;6.580;2023-02-03T09:00:22;101957.25;;;8.79;100.00
60307;BME280;46155;52.364;6.580;2023-02-03T09:02:47;101954.75;;;8.71;100.00
60307;BME280;46155;52.364;6.580;2023-02-03T09:05:12;101957.91;;;8.77;100.00
60307;BME280;46155;52.364;6.580;2023-02-03T09:07:38;101951.88;;;8.78;100.00
60307;BME280;46155;52.364;6.580;2023-02-03T09:10:03;101965.50;;;8.74;100.00
60307;BME280;46155;52.364;6.580;2023-02-03T09:12:29;101956.59;;;8.82;100.00
60307;BME280;46155;52.364;6.580;2023-02-03T09:14:54;101980.16;;;8.82;100.00
60307;BME280;46155;52.364;6.580;2023-02-03T09:17:19;101972.44;;;8.84;100.00
60307;BME280;46155;52.364;6.580;2023-02-03T09:19:45;101972.06;;;8.79;100.00
60307;BME280;46155;52.364;6.580;2023-02-03T09:22:10;101983.56;;;8.81;100.00
60307;BME280;46155;52.364;6.580;2023-02-03T09:24:35;101976.34;;;8.78;100.00
60307;BME280;46155;52.364;6.580;2023-02-03T09:27:00;101983.31;;;8.78;100.00
60307;BME280;46155;52.364;6.580;2023-02-03T09:29:26;101973.47;;;8.75;100.00
60307;BME280;46155;52.364;6.580;2023-02-03T09:31:52;101983.31;;;8.78;100.00
60307;BME280;46155;52.364;6.580;2023-02-03T09:34:18;101973.34;;;8.74;100.00
60307;BME280;46155;52.364;6.580;2023-02-03T09:36:44;101981.25;;;8.94;100.00
60307;BME280;46155;52.364;6.580;2023-02-03T09:39:10;101986.19;;;8.81;100.00
60307;BME280;46155;52.364;6.580;2023-02-03T09:47:09;101990.00;;;8.85;100.00
60307;BME280;46155;52.364;6.580;2023-02-03T09:49:39;101994.44;;;9.17;100.00
60307;BME280;46155;52.364;6.580;2023-02-03T09:52:18;102002.06;;;9.03;100.00
60307;BME280;46155;52.364;6.580;2023-02-03T09:55:02;102008.97;;;8.92;100.00
60307;BME280;46155;52.364;6.580;2023-02-03T09:57:30;102009.25;;;8.95;100.00
60307;BME280;46155;52.364;6.580;2023-02-03T09:59:58;102016.84;;;9.03;100.00
60307;BME280;46155;52.364;6.580;2023-02-03T10:11:41;102000.72;;;9.08;100.00
60307;BME280;46155;52.364;6.580;2023-02-03T10:19:21;102032.84;;;9.06;100.00
60307;BME280;46155;52.364;6.580;2023-02-03T10:21:57;102033.38;;;9.12;100.00
60307;BME280;46155;52.364;6.580;2023-02-03T10:24:46;102028.91;;;9.21;100.00
60307;BME280;46155;52.364;6.580;2023-02-03T10:27:19;102050.63;;;9.10;100.00
60307;BME280;46155;52.364;6.580;2023-02-03T10:29:52;102052.22;;;9.08;100.00
60307;BME280;46155;52.364;6.580;2023-02-03T10:32:19;102051.44;;;9.09;100.00
60307;BME280;46155;52.364;6.580;2023-02-03T10:34:46;102043.84;;;9.02;100.00
60307;BME280;46155;52.364;6.580;2023-02-03T10:37:27;102056.75;;;8.90;100.00
60307;BME280;46155;52.364;6.580;2023-02-03T10:39:54;102047.59;;;8.85;100.00
60307;BME280;46155;52.364;6.580;2023-02-03T10:42:21;102053.50;;;8.82;100.00
60307;BME280;46155;52.364;6.580;2023-02-03T10:49:52;102076.34;;;8.74;100.00
60307;BME280;46155;52.364;6.580;2023-02-03T10:52:32;102075.06;;;8.79;100.00
60307;BME280;46155;52.364;6.580;2023-02-03T10:55:04;102084.66;;;8.79;100.00
60307;BME280;46155;52.364;6.580;2023-02-03T10:57:29;102091.44;;;8.87;100.00
60307;BME280;46155;52.364;6.580;2023-02-03T11:00:23;102094.81;;;8.76;100.00
60307;BME280;46155;52.364;6.580;2023-02-03T11:03:20;102084.13;;;8.83;100.00
60307;BME280;46155;52.364;6.580;2023-02-03T11:06:02;102091.03;;;8.72;100.00
60307;BME280;46155;52.364;6.580;2023-02-03T11:08:30;102098.91;;;8.83;100.00
60307;BME280;46155;52.364;6.580;2023-02-03T11:11:08;102107.41;;;8.80;100.00
60307;BME280;46155;52.364;6.580;2023-02-03T11:13:34;102090.81;;;8.90;100.00
60307;BME280;46155;52.364;6.580;2023-02-03T11:16:02;102100.34;;;8.79;100.00
60307;BME280;46155;52.364;6.580;2023-02-03T11:18:38;102094.44;;;8.82;100.00
60307;BME280;46155;52.364;6.580;2023-02-03T11:21:07;102101.91;;;8.77;100.00
60307;BME280;46155;52.364;6.580;2023-02-03T11:23:33;102087.78;;;8.75;100.00
60307;BME280;46155;52.364;6.580;2023-02-03T11:25:58;102090.16;;;8.82;100.00
60307;BME280;46155;52.364;6.580;2023-02-03T11:28:26;102092.63;;;8.81;100.00
60307;BME280;46155;52.364;6.580;2023-02-03T11:30:56;102100.88;;;8.85;100.00
60307;BME280;46155;52.364;6.580;2023-02-03T11:33:25;102104.91;;;8.82;100.00
60307;BME280;46155;52.364;6.580;2023-02-03T11:35:58;102101.53;;;8.83;100.00
60307;BME280;46155;52.364;6.580;2023-02-03T11:38:32;102105.63;;;8.89;100.00
60307;BME280;46155;52.364;6.580;2023-02-03T11:41:00;102113.00;;;9.14;100.00
60307;BME280;46155;52.364;6.580;2023-02-03T11:43:27;102111.97;;;9.12;100.00
60307;BME280;46155;52.364;6.580;2023-02-03T11:46:00;102109.34;;;9.02;100.00
60307;BME280;46155;52.364;6.580;2023-02-03T11:48:31;102120.31;;;8.98;100.00
60307;BME280;46155;52.364;6.580;2023-02-03T12:02:30;102144.56;;;9.16;100.00
60307;BME280;46155;52.364;6.580;2023-02-03T12:14:06;102160.16;;;9.14;100.00
60307;BME280;46155;52.364;6.580;2023-02-03T12:19:29;102169.22;;;9.18;100.00
60307;BME280;46155;52.364;6.580;2023-02-03T12:25:00;102169.09;;;9.26;100.00
60307;BME280;46155;52.364;6.580;2023-02-03T12:28:02;102164.50;;;9.24;100.00
60307;BME280;46155;52.364;6.580;2023-02-03T12:30:35;102164.63;;;9.15;100.00
60307;BME280;46155;52.364;6.580;2023-02-03T12:33:14;102170.09;;;9.08;100.00
60307;BME280;46155;52.364;6.580;2023-02-03T12:35:49;102182.19;;;9.16;100.00
60307;BME280;46155;52.364;6.580;2023-02-03T12:41:10;102179.72;;;8.88;100.00
60307;BME280;46155;52.364;6.580;2023-02-03T12:43:41;102184.97;;;8.88;100.00
60307;BME280;46155;52.364;6.580;2023-02-03T12:46:30;102183.03;;;8.96;100.00
60307;BME280;46155;52.364;6.580;2023-02-03T12:49:04;102182.44;;;9.09;100.00
60307;BME280;46155;52.364;6.580;2023-02-03T12:51:58;102183.44;;;9.01;100.00
60307;BME280;46155;52.364;6.580;2023-02-03T12:54:36;102176.72;;;8.94;100.00
60307;BME280;46155;52.364;6.580;2023-02-03T12:57:28;102163.63;;;8.94;100.00
60307;BME280;46155;52.364;6.580;2023-02-03T13:02:34;102174.22;;;8.85;100.00
60307;BME280;46155;52.364;6.580;2023-02-03T13:05:26;102167.13;;;8.84;100.00
60307;BME280;46155;52.364;6.580;2023-02-03T13:08:00;102171.09;;;8.89;100.00
60307;BME280;46155;52.364;6.580;2023-02-03T13:10:37;102172.47;;;8.75;100.00
60307;BME280;46155;52.364;6.580;2023-02-03T13:13:10;102166.72;;;8.79;100.00
60307;BME280;46155;52.364;6.580;2023-02-03T13:15:45;102164.75;;;8.77;100.00
60307;BME280;46155;52.364;6.580;2023-02-03T13:18:20;102176.22;;;8.69;100.00
60307;BME280;46155;52.364;6.580;2023-02-03T13:20:51;102178.34;;;8.73;100.00
60307;BME280;46155;52.364;6.580;2023-02-03T13:23:18;102179.16;;;8.72;100.00
60307;BME280;46155;52.364;6.580;2023-02-03T13:25:50;102173.44;;;8.86;100.00
60307;BME280;46155;52.364;6.580;2023-02-03T13:28:30;102177.44;;;8.72;100.00
60307;BME280;46155;52.364;6.580;2023-02-03T13:31:10;102174.22;;;8.85;100.00
60307;BME280;46155;52.364;6.580;2023-02-03T13:39:23;102181.81;;;8.82;100.00
60307;BME280;46155;52.364;6.580;2023-02-03T13:41:54;102179.91;;;8.71;100.00
60307;BME280;46155;52.364;6.580;2023-02-03T13:44:25;102189.88;;;8.75;100.00
60307;BME280;46155;52.364;6.580;2023-02-03T13:46:52;102192.25;;;8.72;100.00
60307;BME280;46155;52.364;6.580;2023-02-03T13:49:39;102192.50;;;8.75;100.00
60307;BME280;46155;52.364;6.580;2023-02-03T13:54:59;102193.56;;;8.77;100.00
60307;BME280;46155;52.364;6.580;2023-02-03T13:57:31;102200.09;;;8.72;100.00
60307;BME280;46155;52.364;6.580;2023-02-03T13:59:59;102201.91;;;8.73;100.00
60307;BME280;46155;52.364;6.580;2023-02-03T14:04:53;102207.00;;;8.90;98.64
60307;BME280;46155;52.364;6.580;2023-02-03T14:17:52;102223.22;;;8.67;96.09
60307;BME280;46155;52.364;6.580;2023-02-03T14:22:56;102236.53;;;8.79;94.76
60307;BME280;46155;52.364;6.580;2023-02-03T14:25:23;102248.97;;;8.63;95.59
60307;BME280;46155;52.364;6.580;2023-02-03T14:28:01;102254.72;;;8.77;93.41
60307;BME280;46155;52.364;6.580;2023-02-03T14:30:27;102266.25;;;8.60;95.63
60307;BME280;46155;52.364;6.580;2023-02-03T14:32:55;102250.19;;;8.47;95.25
60307;BME280;46155;52.364;6.580;2023-02-03T14:35:30;102250.19;;;8.47;95.55
60307;BME280;46155;52.364;6.580;2023-02-03T14:38:02;102260.66;;;8.47;95.77
60307;BME280;46155;52.364;6.580;2023-02-03T14:46:24;102264.19;;;8.48;93.97
60307;BME280;46155;52.364;6.580;2023-02-03T14:49:12;102269.72;;;8.51;94.13
60307;BME280;46155;52.364;6.580;2023-02-03T14:55:08;102266.34;;;8.43;95.09
60307;BME280;46155;52.364;6.580;2023-02-03T14:57:48;102271.88;;;8.46;94.80
60307;BME280;46155;52.364;6.580;2023-02-03T15:05:41;102282.69;;;8.49;93.26
60307;BME280;46155;52.364;6.580;2023-02-03T15:08:40;102281.25;;;8.53;93.90
60307;BME280;46155;52.364;6.580;2023-02-03T15:11:27;102297.38;;;8.57;93.78
60307;BME280;46155;52.364;6.580;2023-02-03T15:13:55;102291.22;;;8.57;93.45
60307;BME280;46155;52.364;6.580;2023-02-03T15:16:22;102296.81;;;8.51;92.99
60307;BME280;46155;52.364;6.580;2023-02-03T15:18:57;102287.56;;;8.55;93.62
60307;BME280;46155;52.364;6.580;2023-02-03T15:21:23;102285.63;;;8.63;92.48
60307;BME280;46155;52.364;6.580;2023-02-03T15:23:49;102284.38;;;8.68;91.39
60307;BME280;46155;52.364;6.580;2023-02-03T15:26:22;102280.66;;;8.66;92.01
60307;BME280;46155;52.364;6.580;2023-02-03T15:28:59;102276.16;;;8.54;92.46
60307;BME280;46155;52.364;6.580;2023-02-03T15:31:35;102281.09;;;8.51;92.13
60307;BME280;46155;52.364;6.580;2023-02-03T15:34:06;102281.88;;;8.50;92.07
60307;BME280;46155;52.364;6.580;2023-02-03T15:36:40;102298.03;;;8.55;90.90
60307;BME280;46155;52.364;6.580;2023-02-03T15:41:58;102303.63;;;8.49;91.02
60307;BME280;46155;52.364;6.580;2023-02-03T15:44:44;102298.31;;;8.30;91.27
60307;BME280;46155;52.364;6.580;2023-02-03T15:47:39;102309.88;;;8.23;93.02
60307;BME280;46155;52.364;6.580;2023-02-03T15:50:23;102308.69;;;8.39;90.84
60307;BME280;46155;52.364;6.580;2023-02-03T15:52:52;102311.31;;;8.39;91.25
60307;BME280;46155;52.364;6.580;2023-02-03T15:55:41;102312.00;;;8.27;92.36
60307;BME280;46155;52.364;6.580;2023-02-03T15:58:16;102325.91;;;8.26;91.76
60307;BME280;46155;52.364;6.580;2023-02-03T16:00:48;102317.88;;;8.25;90.67
60307;BME280;46155;52.364;6.580;2023-02-03T16:03:27;102338.78;;;8.25;90.86
60307;BME280;46155;52.364;6.580;2023-02-03T16:11:19;102335.56;;;8.00;92.78
60307;BME280;46155;52.364;6.580;2023-02-03T16:13:44;102330.19;;;7.98;92.32
60307;BME280;46155;52.364;6.580;2023-02-03T16:16:20;102337.09;;;7.98;91.82
60307;BME280;46155;52.364;6.580;2023-02-03T16:18:51;102335.75;;;7.92;94.86
60307;BME280;46155;52.364;6.580;2023-02-03T16:27:19;102348.56;;;7.81;92.70
60307;BME280;46155;52.364;6.580;2023-02-03T16:29:44;102357.78;;;7.86;91.89
60307;BME280;46155;52.364;6.580;2023-02-03T16:32:29;102362.56;;;7.81;92.54
60307;BME280;46155;52.364;6.580;2023-02-03T16:35:13;102366.72;;;7.79;92.45
60307;BME280;46155;52.364;6.580;2023-02-03T16:38:04;102352.91;;;7.71;93.23
60307;BME280;46155;52.364;6.580;2023-02-03T16:40:48;102369.03;;;7.76;93.01
60307;BME280;46155;52.364;6.580;2023-02-03T16:43:32;102375.03;;;7.75;93.14
60307;BME280;46155;52.364;6.580;2023-02-03T16:46:16;102372.69;;;7.78;92.66
60307;BME280;46155;52.364;6.580;2023-02-03T16:48:59;102382.09;;;7.76;93.31
60307;BME280;46155;52.364;6.580;2023-02-03T16:51:43;102383.34;;;7.80;92.51
60307;BME280;46155;52.364;6.580;2023-02-03T16:54:11;102385.19;;;7.72;93.29
60307;BME280;46155;52.364;6.580;2023-02-03T16:56:42;102393.78;;;7.71;93.83
60307;BME280;46155;52.364;6.580;2023-02-03T16:59:08;102375.09;;;7.57;95.01
60307;BME280;46155;52.364;6.580;2023-02-03T17:01:33;102389.53;;;7.63;94.85
60307;BME280;46155;52.364;6.580;2023-02-03T17:03:59;102396.91;;;7.58;95.41
60307;BME280;46155;52.364;6.580;2023-02-03T17:06:25;102407.38;;;7.49;96.49
60307;BME280;46155;52.364;6.580;2023-02-03T17:08:50;102406.63;;;7.50;97.09
60307;BME280;46155;52.364;6.580;2023-02-03T17:11:19;102414.16;;;7.47;97.58
60307;BME280;46155;52.364;6.580;2023-02-03T17:13:46;102424.44;;;7.54;97.04
60307;BME280;46155;52.364;6.580;2023-02-03T17:16:17;102417.97;;;7.59;96.40
60307;BME280;46155;52.364;6.580;2023-02-03T17:18:44;102423.66;;;7.55;96.83
60307;BME280;46155;52.364;6.580;2023-02-03T17:21:12;102429.03;;;7.48;97.12
60307;BME280;46155;52.364;6.580;2023-02-03T17:23:38;102436.44;;;7.44;97.55
60307;BME280;46155;52.364;6.580;2023-02-03T17:26:04;102438.13;;;7.52;96.74
60307;BME280;46155;52.364;6.580;2023-02-03T17:28:30;102449.50;;;7.52;96.91
60307;BME280;46155;52.364;6.580;2023-02-03T17:30:59;102442.44;;;7.51;97.16
60307;BME280;46155;52.364;6.580;2023-02-03T17:33:25;102439.66;;;7.58;95.93
60307;BME280;46155;52.364;6.580;2023-02-03T17:36:09;102457.97;;;7.58;96.35
60307;BME280;46155;52.364;6.580;2023-02-03T17:38:41;102459.78;;;7.51;96.63
60307;BME280;46155;52.364;6.580;2023-02-03T17:41:14;102462.72;;;7.54;96.95
60307;BME280;46155;52.364;6.580;2023-02-03T17:43:40;102465.47;;;7.55;96.68
60307;BME280;46155;52.364;6.580;2023-02-03T17:46:06;102469.78;;;7.46;97.69
60307;BME280;46155;52.364;6.580;2023-02-03T17:48:32;102470.72;;;7.38;97.99
60307;BME280;46155;52.364;6.580;2023-02-03T17:51:18;102473.47;;;7.39;98.32
60307;BME280;46155;52.364;6.580;2023-02-03T17:53:45;102477.16;;;7.33;98.66
60307;BME280;46155;52.364;6.580;2023-02-03T17:56:13;102479.16;;;7.44;98.00
60307;BME280;46155;52.364;6.580;2023-02-03T17:58:40;102481.16;;;7.38;98.58
60307;BME280;46155;52.364;6.580;2023-02-03T18:01:10;102490.72;;;7.37;98.88
60307;BME280;46155;52.364;6.580;2023-02-03T18:03:42;102495.28;;;7.31;99.51
60307;BME280;46155;52.364;6.580;2023-02-03T18:06:08;102496.38;;;7.24;100.00
60307;BME280;46155;52.364;6.580;2023-02-03T18:08:34;102485.47;;;7.29;99.93
60307;BME280;46155;52.364;6.580;2023-02-03T18:10:59;102479.91;;;7.26;99.75
60307;BME280;46155;52.364;6.580;2023-02-03T18:13:25;102490.97;;;7.14;100.00
60307;BME280;46155;52.364;6.580;2023-02-03T18:15:54;102488.06;;;7.11;100.00
60307;BME280;46155;52.364;6.580;2023-02-03T18:18:20;102475.78;;;7.19;100.00
60307;BME280;46155;52.364;6.580;2023-02-03T18:20:47;102493.28;;;7.20;100.00
60307;BME280;46155;52.364;6.580;2023-02-03T18:23:13;102494.03;;;7.10;100.00
60307;BME280;46155;52.364;6.580;2023-02-03T18:25:38;102490.22;;;7.15;100.00
60307;BME280;46155;52.364;6.580;2023-02-03T18:28:04;102499.25;;;7.10;100.00
60307;BME280;46155;52.364;6.580;2023-02-03T18:30:29;102499.59;;;7.13;100.00
60307;BME280;46155;52.364;6.580;2023-02-03T18:32:55;102505.41;;;7.02;100.00
60307;BME280;46155;52.364;6.580;2023-02-03T18:35:20;102515.22;;;7.04;100.00
60307;BME280;46155;52.364;6.580;2023-02-03T18:37:45;102512.47;;;7.03;100.00
60307;BME280;46155;52.364;6.580;2023-02-03T18:40:11;102517.97;;;6.97;100.00
60307;BME280;46155;52.364;6.580;2023-02-03T18:42:36;102514.44;;;6.97;100.00
60307;BME280;46155;52.364;6.580;2023-02-03T18:45:02;102510.28;;;6.99;100.00
60307;BME280;46155;52.364;6.580;2023-02-03T18:47:31;102515.66;;;6.92;100.00
60307;BME280;46155;52.364;6.580;2023-02-03T18:49:56;102518.91;;;6.98;100.00
60307;BME280;46155;52.364;6.580;2023-02-03T18:52:21;102522.28;;;6.97;100.00
60307;BME280;46155;52.364;6.580;2023-02-03T18:54:47;102536.09;;;6.96;100.00